createdAt,value
2017-01-26T00:00:04.656Z,0
2017-01-26T00:01:13.647Z,0
2017-01-26T00:02:22.641Z,0
2017-01-26T00:03:31.641Z,0
2017-01-26T00:04:40.630Z,0
2017-01-26T00:05:49.622Z,0
2017-01-26T00:06:58.600Z,0
2017-01-26T00:08:07.581Z,0
2017-01-26T00:09:16.598Z,0
2017-01-26T00:10:25.581Z,0
2017-01-26T00:11:34.582Z,0
2017-01-26T00:12:43.567Z,0
2017-01-26T00:13:52.537Z,0
2017-01-26T00:15:01.532Z,0
2017-01-26T00:16:10.518Z,0
2017-01-26T00:17:19.509Z,0
2017-01-26T00:18:28.483Z,0
2017-01-26T00:19:37.467Z,0
2017-01-26T00:20:46.450Z,0
2017-01-26T00:21:55.434Z,0
2017-01-26T00:23:04.436Z,0
2017-01-26T00:24:13.411Z,0
2017-01-26T00:25:22.398Z,0
2017-01-26T00:26:31.387Z,0
2017-01-26T00:27:40.363Z,0
2017-01-26T00:28:49.344Z,0
2017-01-26T00:29:58.325Z,0
2017-01-26T00:31:07.324Z,0
2017-01-26T00:32:16.340Z,0
2017-01-26T00:33:25.329Z,0
2017-01-26T00:34:34.306Z,0
2017-01-26T00:35:43.307Z,0
2017-01-26T00:36:52.286Z,0
2017-01-26T00:38:01.317Z,0
2017-01-26T00:39:10.307Z,0
2017-01-26T00:40:19.286Z,0
2017-01-26T00:41:28.259Z,0
2017-01-26T00:42:37.246Z,0
2017-01-26T00:43:46.239Z,0
2017-01-26T00:44:55.252Z,0
2017-01-26T00:46:04.247Z,0
2017-01-26T00:47:13.232Z,0
2017-01-26T00:48:22.231Z,0
2017-01-26T00:49:31.227Z,0
2017-01-26T00:50:40.234Z,0
2017-01-26T00:51:49.221Z,0
2017-01-26T00:52:58.193Z,0
2017-01-26T00:54:07.187Z,0
2017-01-26T00:55:16.163Z,0
2017-01-26T00:56:25.164Z,0
2017-01-26T00:57:34.145Z,0
2017-01-26T00:58:43.126Z,0
2017-01-26T00:59:52.100Z,0
2017-01-26T01:01:01.085Z,0
2017-01-26T01:02:10.088Z,0
2017-01-26T01:03:19.071Z,0
2017-01-26T01:04:28.058Z,0
2017-01-26T01:05:37.034Z,0
2017-01-26T01:06:46.015Z,0
2017-01-26T01:07:55.002Z,0
2017-01-26T01:09:03.988Z,0
2017-01-26T01:10:12.983Z,0
2017-01-26T01:11:21.964Z,0
2017-01-26T01:12:30.947Z,0
2017-01-26T01:13:39.938Z,0
2017-01-26T01:14:48.939Z,0
2017-01-26T01:15:57.908Z,0
2017-01-26T01:17:06.897Z,0
2017-01-26T01:18:15.879Z,0
2017-01-26T01:19:24.855Z,0
2017-01-26T01:20:33.845Z,0
2017-01-26T01:21:42.840Z,0
2017-01-26T01:22:51.820Z,0
2017-01-26T01:24:00.843Z,0
2017-01-26T01:25:09.811Z,0
2017-01-26T01:26:18.795Z,0
2017-01-26T01:27:27.790Z,0
2017-01-26T01:28:36.776Z,0
2017-01-26T01:29:45.805Z,0
2017-01-26T01:30:54.799Z,0
2017-01-26T01:32:03.811Z,0
2017-01-26T01:33:12.791Z,0
2017-01-26T01:34:21.780Z,0
2017-01-26T01:35:30.764Z,0
2017-01-26T01:36:39.730Z,0
2017-01-26T01:37:48.726Z,0
2017-01-26T01:38:57.709Z,0
2017-01-26T01:40:06.698Z,0
2017-01-26T01:41:15.674Z,0
2017-01-26T01:42:24.656Z,0
2017-01-26T01:43:33.638Z,0
2017-01-26T01:44:42.621Z,0
2017-01-26T01:45:51.591Z,0
2017-01-26T01:47:00.579Z,0
2017-01-26T01:48:09.554Z,0
2017-01-26T01:49:18.571Z,0
2017-01-26T01:50:27.536Z,0
2017-01-26T01:51:36.527Z,0
2017-01-26T01:52:45.504Z,0
2017-01-26T01:53:54.494Z,0
2017-01-26T01:55:03.492Z,0
2017-01-26T01:56:12.487Z,0
2017-01-26T01:57:21.458Z,0
2017-01-26T01:58:30.443Z,0
2017-01-26T01:59:39.457Z,0
2017-01-26T02:00:48.438Z,0
2017-01-26T02:01:57.429Z,0
2017-01-26T02:03:06.426Z,0
2017-01-26T02:04:15.404Z,0
2017-01-26T02:05:24.390Z,0
2017-01-26T02:06:33.376Z,0
2017-01-26T02:07:42.365Z,0
2017-01-26T02:08:51.341Z,0
2017-01-26T02:10:00.330Z,0
2017-01-26T02:11:09.315Z,0
2017-01-26T02:12:18.296Z,0
2017-01-26T02:13:27.299Z,0
2017-01-26T02:14:36.292Z,0
2017-01-26T02:15:45.275Z,0
2017-01-26T02:16:54.266Z,0
2017-01-26T02:18:03.240Z,0
2017-01-26T02:19:12.228Z,0
2017-01-26T02:20:21.205Z,0
2017-01-26T02:21:30.187Z,0
2017-01-26T02:22:39.169Z,0
2017-01-26T02:23:48.155Z,0
2017-01-26T02:24:57.162Z,0
2017-01-26T02:26:06.143Z,0
2017-01-26T02:27:15.126Z,0
2017-01-26T02:28:24.109Z,0
2017-01-26T02:29:33.097Z,0
2017-01-26T02:30:42.108Z,0
2017-01-26T02:31:51.516Z,0
2017-01-26T02:33:00.552Z,0
2017-01-26T02:34:09.540Z,0
2017-01-26T02:35:18.541Z,0
2017-01-26T02:36:27.517Z,0
2017-01-26T02:37:36.509Z,0
2017-01-26T02:38:45.479Z,0
2017-01-26T02:40:00.702Z,0
2017-01-26T02:41:09.689Z,0
2017-01-26T02:42:18.681Z,0
2017-01-26T02:43:27.657Z,0
2017-01-26T02:44:36.674Z,0
2017-01-26T02:45:45.653Z,0
2017-01-26T02:46:54.647Z,0
2017-01-26T02:48:03.630Z,0
2017-01-26T02:49:12.655Z,0
2017-01-26T02:50:21.641Z,0
2017-01-26T02:51:30.620Z,0
2017-01-26T02:52:39.608Z,0
2017-01-26T02:53:48.597Z,0
2017-01-26T02:54:57.611Z,0
2017-01-26T02:56:06.594Z,0
2017-01-26T02:57:15.599Z,0
2017-01-26T02:58:24.583Z,0
2017-01-26T02:59:33.574Z,0
2017-01-26T03:00:42.985Z,0
2017-01-26T03:01:51.958Z,0
2017-01-26T03:03:00.929Z,0
2017-01-26T03:04:09.912Z,0
2017-01-26T03:05:18.910Z,0
2017-01-26T03:06:27.892Z,0
2017-01-26T03:07:37.063Z,0
2017-01-26T03:08:46.207Z,0
2017-01-26T03:09:55.187Z,0
2017-01-26T03:11:04.175Z,0
2017-01-26T03:12:13.169Z,0
2017-01-26T03:13:22.141Z,0
2017-01-26T03:14:31.129Z,0
2017-01-26T03:15:40.097Z,0
2017-01-26T03:16:49.075Z,0
2017-01-26T03:17:58.162Z,0
2017-01-26T03:19:07.150Z,0
2017-01-26T03:20:16.127Z,0
2017-01-26T03:21:25.106Z,0
2017-01-26T03:22:34.094Z,0
2017-01-26T03:23:43.076Z,0
2017-01-26T03:24:52.075Z,0
2017-01-26T03:26:01.053Z,0
2017-01-26T03:27:10.023Z,0
2017-01-26T03:28:19.017Z,0
2017-01-26T03:29:27.999Z,0
2017-01-26T03:30:36.985Z,0
2017-01-26T03:31:45.958Z,0
2017-01-26T03:32:54.940Z,0
2017-01-26T03:34:03.912Z,0
2017-01-26T03:35:12.900Z,0
2017-01-26T03:36:21.921Z,0
2017-01-26T03:37:30.902Z,0
2017-01-26T03:38:39.898Z,0
2017-01-26T03:39:48.881Z,0
2017-01-26T03:40:57.849Z,0
2017-01-26T03:42:06.884Z,0
2017-01-26T03:43:15.857Z,0
2017-01-26T03:44:24.844Z,0
2017-01-26T03:45:33.830Z,0
2017-01-26T03:46:42.808Z,0
2017-01-26T03:47:51.791Z,0
2017-01-26T03:49:00.776Z,0
2017-01-26T03:50:09.755Z,0
2017-01-26T03:51:18.737Z,0
2017-01-26T03:52:27.731Z,0
2017-01-26T03:53:36.714Z,0
2017-01-26T03:54:45.692Z,0
2017-01-26T03:55:54.676Z,0
2017-01-26T03:57:03.662Z,0
2017-01-26T03:58:12.647Z,0
2017-01-26T03:59:21.618Z,0
2017-01-26T04:00:30.610Z,0
2017-01-26T04:01:39.583Z,0
2017-01-26T04:02:48.564Z,0
2017-01-26T04:03:57.552Z,0
2017-01-26T04:05:06.539Z,0
2017-01-26T04:06:15.523Z,0
2017-01-26T04:07:24.505Z,0
2017-01-26T04:08:33.486Z,0
2017-01-26T04:09:42.470Z,0
2017-01-26T04:10:51.861Z,0
2017-01-26T04:12:00.864Z,0
2017-01-26T04:13:09.860Z,0
2017-01-26T04:14:18.856Z,0
2017-01-26T04:15:27.828Z,0
2017-01-26T04:16:36.824Z,0
2017-01-26T04:17:45.810Z,0
2017-01-26T04:18:54.798Z,0
2017-01-26T04:20:03.767Z,0
2017-01-26T04:21:12.758Z,0
2017-01-26T04:22:21.729Z,0
2017-01-26T04:23:30.707Z,0
2017-01-26T04:24:39.692Z,0
2017-01-26T04:25:48.707Z,0
2017-01-26T04:26:57.677Z,0
2017-01-26T04:28:06.678Z,0
2017-01-26T04:29:15.653Z,0
2017-01-26T04:30:24.639Z,0
2017-01-26T04:31:33.621Z,0
2017-01-26T04:32:42.660Z,0
2017-01-26T04:33:51.644Z,0
2017-01-26T04:35:00.635Z,0
2017-01-26T04:36:09.620Z,0
2017-01-26T04:37:18.665Z,0
2017-01-26T04:38:27.653Z,0
2017-01-26T04:39:36.648Z,0
2017-01-26T04:40:45.619Z,0
2017-01-26T04:41:54.594Z,0
2017-01-26T04:43:03.582Z,0
2017-01-26T04:44:12.554Z,0
2017-01-26T04:45:21.528Z,0
2017-01-26T04:46:30.515Z,0
2017-01-26T04:47:39.501Z,0
2017-01-26T04:48:48.510Z,0
2017-01-26T04:49:57.484Z,0
2017-01-26T04:51:06.455Z,0
2017-01-26T04:52:15.443Z,0
2017-01-26T04:53:24.433Z,0
2017-01-26T04:54:33.403Z,0
2017-01-26T04:55:42.384Z,0
2017-01-26T04:56:51.369Z,0
2017-01-26T04:58:00.373Z,0
2017-01-26T04:59:09.349Z,0
2017-01-26T05:00:18.343Z,0
2017-01-26T05:01:27.314Z,0
2017-01-26T05:02:36.305Z,0
2017-01-26T05:03:45.298Z,0
2017-01-26T05:04:54.280Z,0
2017-01-26T05:06:03.277Z,0
2017-01-26T05:07:12.311Z,0
2017-01-26T05:08:21.336Z,0
2017-01-26T05:09:30.323Z,0
2017-01-26T05:10:39.303Z,0
2017-01-26T05:11:48.278Z,0
2017-01-26T05:12:57.266Z,0
2017-01-26T05:14:06.255Z,0
2017-01-26T05:15:15.234Z,0
2017-01-26T05:16:24.220Z,0
2017-01-26T05:17:33.214Z,0
2017-01-26T05:18:42.190Z,0
2017-01-26T05:19:51.176Z,0
2017-01-26T05:21:00.171Z,0
2017-01-26T05:22:09.159Z,0
2017-01-26T05:23:18.146Z,0
2017-01-26T05:24:27.125Z,0
2017-01-26T05:25:36.110Z,0
2017-01-26T05:26:45.098Z,0
2017-01-26T05:27:54.082Z,0
2017-01-26T05:29:03.061Z,0
2017-01-26T05:30:12.051Z,0
2017-01-26T05:31:21.028Z,0
2017-01-26T05:32:30.012Z,0
2017-01-26T05:33:38.999Z,0
2017-01-26T05:34:48.081Z,0
2017-01-26T05:35:57.117Z,0
2017-01-26T05:37:06.147Z,0
2017-01-26T05:38:15.504Z,0
2017-01-26T05:39:24.490Z,0
2017-01-26T05:40:33.477Z,0
2017-01-26T05:41:42.466Z,0
2017-01-26T05:42:51.504Z,0
2017-01-26T05:44:00.490Z,0
2017-01-26T05:45:09.478Z,0
2017-01-26T05:46:18.450Z,0
2017-01-26T05:47:27.432Z,0
2017-01-26T05:48:36.410Z,0
2017-01-26T05:49:45.406Z,0
2017-01-26T05:50:54.381Z,0
2017-01-26T05:52:03.354Z,0
2017-01-26T05:53:12.343Z,0
2017-01-26T05:54:21.334Z,0
2017-01-26T05:55:30.326Z,0
2017-01-26T05:56:39.309Z,0
2017-01-26T05:57:48.286Z,0
2017-01-26T05:58:57.265Z,0
2017-01-26T06:00:06.256Z,0
2017-01-26T06:01:15.241Z,0
2017-01-26T06:02:24.218Z,0
2017-01-26T06:03:33.198Z,0
2017-01-26T06:04:42.164Z,0
2017-01-26T06:05:51.184Z,0
2017-01-26T06:07:00.164Z,0
2017-01-26T06:08:09.148Z,0
2017-01-26T06:09:19.232Z,0
2017-01-26T06:10:28.243Z,0
2017-01-26T06:11:37.221Z,0
2017-01-26T06:12:46.219Z,0
2017-01-26T06:13:55.207Z,0
2017-01-26T06:15:04.220Z,0
2017-01-26T06:16:13.192Z,0
2017-01-26T06:17:22.187Z,0
2017-01-26T06:18:31.184Z,0
2017-01-26T06:19:40.178Z,0
2017-01-26T06:20:49.155Z,0
2017-01-26T06:21:58.167Z,0
2017-01-26T06:23:07.137Z,0
2017-01-26T06:24:16.121Z,0
2017-01-26T06:25:25.104Z,0
2017-01-26T06:26:34.088Z,0
2017-01-26T06:27:43.073Z,0
2017-01-26T06:28:52.056Z,0
2017-01-26T06:30:01.043Z,0
2017-01-26T06:31:10.030Z,0
2017-01-26T06:32:19.004Z,0
2017-01-26T06:33:28.010Z,0
2017-01-26T06:34:36.987Z,0
2017-01-26T06:35:45.995Z,0
2017-01-26T06:36:54.986Z,4
2017-01-26T06:38:03.971Z,0
2017-01-26T06:39:12.950Z,0
2017-01-26T06:40:21.984Z,0
2017-01-26T06:41:30.963Z,4
2017-01-26T06:42:39.948Z,4
2017-01-26T06:43:48.929Z,0
2017-01-26T06:44:57.911Z,4
2017-01-26T06:46:06.900Z,4
2017-01-26T06:47:15.881Z,4
2017-01-26T06:48:24.859Z,4
2017-01-26T06:49:33.842Z,4
2017-01-26T06:50:42.833Z,8
2017-01-26T06:51:51.810Z,8
2017-01-26T06:53:00.785Z,8
2017-01-26T06:54:09.769Z,12
2017-01-26T06:55:18.759Z,8
2017-01-26T06:56:27.748Z,12
2017-01-26T06:57:36.742Z,12
2017-01-26T06:58:45.728Z,16
2017-01-26T06:59:54.699Z,16
2017-01-26T07:01:03.694Z,16
2017-01-26T07:02:12.670Z,20
2017-01-26T07:03:21.655Z,24
2017-01-26T07:04:30.648Z,24
2017-01-26T07:05:39.630Z,24
2017-01-26T07:06:48.616Z,28
2017-01-26T07:07:57.612Z,28
2017-01-26T07:09:06.589Z,28
2017-01-26T07:10:15.585Z,32
2017-01-26T07:11:24.564Z,40
2017-01-26T07:12:33.557Z,40
2017-01-26T07:13:42.549Z,40
2017-01-26T07:14:51.547Z,44
2017-01-26T07:16:00.525Z,44
2017-01-26T07:17:09.523Z,56
2017-01-26T07:18:18.552Z,52
2017-01-26T07:19:27.582Z,56
2017-01-26T07:20:36.564Z,56
2017-01-26T07:21:45.557Z,60
2017-01-26T07:22:54.541Z,64
2017-01-26T07:24:03.522Z,64
2017-01-26T07:25:12.512Z,72
2017-01-26T07:26:21.494Z,72
2017-01-26T07:27:30.481Z,72
2017-01-26T07:28:39.477Z,72
2017-01-26T07:29:48.588Z,80
2017-01-26T07:30:57.589Z,80
2017-01-26T07:32:07.068Z,88
2017-01-26T07:33:16.052Z,84
2017-01-26T07:34:25.025Z,88
2017-01-26T07:35:34.018Z,92
2017-01-26T07:36:43.001Z,92
2017-01-26T07:37:52.065Z,88
2017-01-26T07:39:01.047Z,88
2017-01-26T07:40:10.040Z,80
2017-01-26T07:41:19.015Z,80
2017-01-26T07:42:28.005Z,80
2017-01-26T07:43:36.998Z,72
2017-01-26T07:44:46.008Z,80
2017-01-26T07:45:54.996Z,68
2017-01-26T07:47:04.007Z,64
2017-01-26T07:48:12.990Z,72
2017-01-26T07:49:21.974Z,64
2017-01-26T07:50:30.970Z,72
2017-01-26T07:51:39.963Z,80
2017-01-26T07:52:48.946Z,72
2017-01-26T07:53:57.947Z,88
2017-01-26T07:55:06.919Z,72
2017-01-26T07:56:15.932Z,88
2017-01-26T07:57:24.921Z,96
2017-01-26T07:58:33.903Z,104
2017-01-26T07:59:42.905Z,104
2017-01-26T08:00:51.883Z,124
2017-01-26T08:02:00.860Z,112
2017-01-26T08:03:09.849Z,100
2017-01-26T08:04:18.847Z,116
2017-01-26T08:05:27.830Z,116
2017-01-26T08:06:36.816Z,108
2017-01-26T08:07:45.810Z,140
2017-01-26T08:08:54.786Z,176
2017-01-26T08:10:03.788Z,184
2017-01-26T08:11:12.768Z,160
2017-01-26T08:12:21.745Z,168
2017-01-26T08:13:30.719Z,184
2017-01-26T08:14:39.705Z,156
2017-01-26T08:15:48.704Z,172
2017-01-26T08:16:57.691Z,216
2017-01-26T08:18:06.686Z,164
2017-01-26T08:19:16.081Z,172
2017-01-26T08:20:25.069Z,192
2017-01-26T08:21:34.067Z,204
2017-01-26T08:22:43.463Z,204
2017-01-26T08:23:52.448Z,212
2017-01-26T08:25:01.847Z,244
2017-01-26T08:26:10.830Z,280
2017-01-26T08:27:19.814Z,184
2017-01-26T08:28:28.804Z,252
2017-01-26T08:29:37.799Z,224
2017-01-26T08:30:46.812Z,260
2017-01-26T08:31:55.822Z,236
2017-01-26T08:33:04.801Z,212
2017-01-26T08:34:13.788Z,252
2017-01-26T08:35:22.768Z,228
2017-01-26T08:36:31.743Z,192
2017-01-26T08:37:40.751Z,280
2017-01-26T08:38:49.738Z,280
2017-01-26T08:39:58.731Z,236
2017-01-26T08:41:07.724Z,200
2017-01-26T08:42:16.698Z,244
2017-01-26T08:43:25.679Z,276
2017-01-26T08:44:34.664Z,236
2017-01-26T08:45:43.654Z,272
2017-01-26T08:46:52.652Z,220
2017-01-26T08:48:01.636Z,232
2017-01-26T08:49:10.623Z,288
2017-01-26T08:50:19.605Z,220
2017-01-26T08:51:28.604Z,260
2017-01-26T08:52:37.591Z,224
2017-01-26T08:53:46.581Z,252
2017-01-26T08:54:55.572Z,248
2017-01-26T08:56:04.547Z,320
2017-01-26T08:57:13.539Z,252
2017-01-26T08:58:22.527Z,272
2017-01-26T08:59:31.510Z,268
2017-01-26T09:00:40.523Z,228
2017-01-26T09:01:49.504Z,260
2017-01-26T09:02:58.495Z,212
2017-01-26T09:04:07.483Z,276
2017-01-26T09:05:16.476Z,256
2017-01-26T09:06:25.463Z,296
2017-01-26T09:07:34.461Z,216
2017-01-26T09:08:43.460Z,240
2017-01-26T09:09:52.447Z,284
2017-01-26T09:11:01.436Z,272
2017-01-26T09:12:10.569Z,304
2017-01-26T09:13:20.115Z,184
2017-01-26T09:14:31.334Z,208
2017-01-26T09:15:40.361Z,228
2017-01-26T09:16:49.344Z,248
2017-01-26T09:17:58.326Z,212
2017-01-26T09:19:07.317Z,208
2017-01-26T09:20:16.318Z,212
2017-01-26T09:21:25.297Z,212
2017-01-26T09:22:34.289Z,208
2017-01-26T09:23:43.263Z,216
2017-01-26T09:24:52.261Z,212
2017-01-26T09:26:01.237Z,208
2017-01-26T09:27:10.238Z,204
2017-01-26T09:28:19.214Z,192
2017-01-26T09:29:28.216Z,200
2017-01-26T09:30:37.189Z,212
2017-01-26T09:31:46.164Z,192
2017-01-26T09:32:55.149Z,192
2017-01-26T09:34:04.174Z,212
2017-01-26T09:35:13.175Z,196
2017-01-26T09:36:22.165Z,200
2017-01-26T09:37:31.151Z,184
2017-01-26T09:38:40.134Z,196
2017-01-26T09:39:49.144Z,212
2017-01-26T09:40:58.141Z,200
2017-01-26T09:42:07.127Z,204
2017-01-26T09:43:16.128Z,196
2017-01-26T09:44:25.118Z,208
2017-01-26T09:45:34.088Z,220
2017-01-26T09:46:43.086Z,200
2017-01-26T09:47:52.084Z,220
2017-01-26T09:49:01.064Z,228
2017-01-26T09:50:10.054Z,216
2017-01-26T09:51:19.049Z,212
2017-01-26T09:52:28.028Z,220
2017-01-26T09:53:37.049Z,216
2017-01-26T09:54:46.038Z,224
2017-01-26T09:55:55.022Z,216
2017-01-26T09:57:04.001Z,208
2017-01-26T09:58:12.990Z,200
2017-01-26T09:59:21.982Z,216
2017-01-26T10:00:31.007Z,212
2017-01-26T10:01:40.016Z,212
2017-01-26T10:02:48.998Z,212
2017-01-26T10:03:58.043Z,216
2017-01-26T10:05:07.044Z,216
2017-01-26T10:06:16.034Z,224
2017-01-26T10:07:25.046Z,212
2017-01-26T10:08:34.071Z,216
2017-01-26T10:09:43.058Z,216
2017-01-26T10:10:52.060Z,216
2017-01-26T10:12:01.055Z,220
2017-01-26T10:13:10.032Z,216
2017-01-26T10:14:19.021Z,216
2017-01-26T10:15:28.008Z,224
2017-01-26T10:16:36.999Z,224
2017-01-26T10:17:45.991Z,224
2017-01-26T10:18:54.977Z,224
2017-01-26T10:20:03.981Z,224
2017-01-26T10:21:12.974Z,228
2017-01-26T10:22:21.969Z,228
2017-01-26T10:23:30.959Z,228
2017-01-26T10:24:39.955Z,236
2017-01-26T10:25:48.969Z,236
2017-01-26T10:26:57.956Z,236
2017-01-26T10:28:06.937Z,232
2017-01-26T10:29:15.929Z,236
2017-01-26T10:30:24.923Z,236
2017-01-26T10:31:33.911Z,240
2017-01-26T10:32:42.882Z,236
2017-01-26T10:33:51.859Z,236
2017-01-26T10:35:00.879Z,236
2017-01-26T10:36:09.876Z,236
2017-01-26T10:37:18.876Z,240
2017-01-26T10:38:27.864Z,244
2017-01-26T10:39:36.851Z,252
2017-01-26T10:40:45.828Z,248
2017-01-26T10:41:54.820Z,248
2017-01-26T10:43:03.800Z,264
2017-01-26T10:44:12.804Z,248
2017-01-26T10:45:21.819Z,252
2017-01-26T10:46:31.211Z,260
2017-01-26T10:47:40.210Z,336
2017-01-26T10:48:49.207Z,428
2017-01-26T10:49:58.197Z,352
2017-01-26T10:51:07.187Z,336
2017-01-26T10:52:16.164Z,356
2017-01-26T10:53:25.155Z,524
2017-01-26T10:54:34.147Z,352
2017-01-26T10:55:43.138Z,320
2017-01-26T10:56:52.132Z,476
2017-01-26T10:58:01.116Z,448
2017-01-26T10:59:10.105Z,348
2017-01-26T11:00:19.098Z,344
2017-01-26T11:01:28.097Z,360
2017-01-26T11:02:37.108Z,456
2017-01-26T11:03:46.094Z,356
2017-01-26T11:04:55.077Z,440
2017-01-26T11:06:04.079Z,496
2017-01-26T11:07:13.229Z,528
2017-01-26T11:08:22.207Z,612
2017-01-26T11:09:31.195Z,372
2017-01-26T11:10:40.182Z,376
2017-01-26T11:11:49.163Z,480
2017-01-26T11:12:58.154Z,448
2017-01-26T11:14:07.141Z,464
2017-01-26T11:15:16.118Z,468
2017-01-26T11:16:25.096Z,420
2017-01-26T11:17:34.112Z,460
2017-01-26T11:18:43.098Z,332
2017-01-26T11:19:52.108Z,460
2017-01-26T11:21:01.083Z,512
2017-01-26T11:22:10.058Z,496
2017-01-26T11:23:19.074Z,412
2017-01-26T11:24:28.063Z,340
2017-01-26T11:25:37.041Z,332
2017-01-26T11:26:46.029Z,460
2017-01-26T11:27:55.014Z,472
2017-01-26T11:29:03.996Z,528
2017-01-26T11:30:12.976Z,480
2017-01-26T11:31:21.971Z,456
2017-01-26T11:32:30.960Z,460
2017-01-26T11:33:39.947Z,464
2017-01-26T11:34:48.931Z,476
2017-01-26T11:35:57.910Z,440
2017-01-26T11:37:06.950Z,472
2017-01-26T11:38:16.278Z,480
2017-01-26T11:39:55.145Z,420
2017-01-26T11:41:04.116Z,444
2017-01-26T11:42:13.106Z,476
2017-01-26T11:43:22.086Z,536
2017-01-26T11:44:31.071Z,452
2017-01-26T11:45:40.065Z,528
2017-01-26T11:46:49.052Z,480
2017-01-26T11:47:58.027Z,544
2017-01-26T11:49:07.020Z,500
2017-01-26T11:50:16.005Z,548
2017-01-26T11:51:25.039Z,524
2017-01-26T11:52:34.026Z,540
2017-01-26T11:53:43.017Z,512
2017-01-26T11:54:52.005Z,544
2017-01-26T11:56:00.998Z,504
2017-01-26T11:57:09.981Z,464
2017-01-26T11:58:18.964Z,488
2017-01-26T11:59:27.961Z,484
